x

Neah Bay, - 6nm North Of Cape Flattery, Wa (traffic Separation Lighted Buoy) (46087) Wave Buoy

5:50am - Fri 27th Mar 2015 All times are PDT. -7 hours from GMT.

  • Sig Wave height 7.5ft
  • Swell Direction
  • Peak Period 12s
  • Average Period 9s
  • Wind
    9mph, 11mph gusts
  • Sea Temp 53°f
  • 空気 Temp 52°f
  • Sea Pressure 1016.4mb
  • Neah Bay, - 6nm North Of Cape Flattery, Wa     (traffic Separation Lighted Buoy)
  • Neah Bay, - 6nm North Of Cape Flattery, Wa     (traffic Separation Lighted Buoy)

More Historic Weather Station data

Upgrade to MSW Pro to gain access to the past 30 days of data for over 8000 Wavebouys and Weather Stations around the globe.

Join Pro

Comparision Forecast

View Surf forecast
   
Fri 03/27 5:50am 7.5ft 12s 9s 9 11 mph 1016.4mb 53f 52f
5:20am  -   -   -  11 13 mph 1016.5mb 53f 52f
4:50am 7ft 11s 9s 11 16 mph 1016.7mb 53f 52f
4:20am  -   -   -  11 16 mph 1017.1mb 53f 51f
3:50am 6ft 11s 9s 11 16 mph 1017.5mb 53f 52f
3:20am  -   -   -  11 13 mph 1018.2mb 53f 52f
2:50am 6.5ft 11s 9s 2 4 mph 1018.6mb 52f 52f
2:20am  -   -   -  2 4 mph 1018.8mb 52f 52f
1:50am 7.5ft 11s 10s 2 4 mph 1019mb 53f 52f
1:20am  -   -   -  4 7 mph 1019.4mb 52f 52f
12:50am 7ft 12s 9s 4 7 mph 1020mb 52f 52f
12:20am  -   -   -   -  2 mph 1020.5mb 52f 52f
Thu 03/26 11:50pm 7ft 11s 9s  -  2 mph 1020.8mb 52f 52f
11:20pm  -   -   -  2 4 mph 1021mb 52f 52f
10:50pm 7ft 11s 9s 2 4 mph 1021.2mb 52f 52f
10:20pm  -   -   -  4
mph
1021.5mb 52f 53f
9:50pm 6.5ft 11s 9s 2 4 mph 1021.6mb 53f 53f
9:20pm  -   -   -  2
mph
1021.6mb 53f 53f
8:50pm 7ft 11s 8s 2 4 mph 1021.5mb 53f 54f
8:20pm  -   -   -   -  2 mph 1021.5mb 53f 53f
7:50pm 7ft 10s 8s 2
mph
1021.8mb 54f 54f
7:20pm  -   -   -   -  2 mph 1021.7mb 54f 54f
6:50pm 7ft 10s 8s 2 4 mph 1021.9mb 53f 54f
6:20pm  -   -   -   -  2 mph 1022.3mb 54f 55f
5:50pm 7ft 11s 7s 2 4 mph 1022.6mb 54f 56f
5:20pm  -   -   -  4 7 mph 1023mb 53f 55f
4:50pm 7ft 11s 8s 2 4 mph 1023.1mb 53f 55f
4:20pm  -   -   -  4 7 mph 1023.3mb 54f 55f
3:50pm 8ft 11s 8s 4 9 mph 1023.4mb 54f 56f
3:20pm  -   -   -  4 7 mph 1023.6mb 53f 55f
2:50pm 7.5ft 11s 8s 4 7 mph 1023.8mb 54f 55f
2:20pm  -   -   -  4 9 mph 1024.2mb 53f 55f
1:50pm 7ft 11s 8s 4 7 mph 1024.5mb 53f 55f
1:20pm  -   -   -  4 7 mph 1024.7mb 53f 54f
12:50pm 7ft 11s 9s 4 7 mph 1024.8mb 53f 54f
12:20pm  -   -   -  4 9 mph 1024.8mb 53f 54f
11:50am 6ft 11s 8s 4 7 mph 1025mb 52f 54f
11:20am  -   -   -  7 9 mph 1024.9mb 52f 54f
10:50am 6ft 9s 8s 9 11 mph 1025mb 52f 54f
10:20am  -   -   -  9 16 mph 1025.2mb 52f 55f
9:50am 6ft 11s 8s 11 20 mph 1024.9mb 52f 55f
9:20am  -   -   -  11 16 mph 1025mb 52f 54f
8:50am 6ft 11s 7s 9 11 mph 1024.9mb 52f 53f
8:20am  -   -   -  13 16 mph 1024.7mb 52f 53f
7:50am 6ft 11s 7s 13 18 mph 1024.6mb 52f 53f
7:20am  -   -   -  16 20 mph 1024.4mb 52f 52f
6:50am 6ft 11s 7s 11 13 mph 1024.3mb 52f 52f
6:20am  -   -   -  9 11 mph 1024.2mb 52f 52f
5:50am 6.5ft 11s 7s 9 13 mph 1024.5mb 52f 52f
5:20am  -   -   -  4 7 mph 1024.5mb 52f 53f
4:50am 6ft 11s 7s 4 9 mph 1024.8mb 52f 53f
4:20am  -   -   -  7 9 mph 1024.7mb 52f 53f
3:50am 5.5ft 12s 7s 9 11 mph 1024.8mb 52f 53f
3:20am  -   -   -  11 16 mph 1024.8mb 52f 53f
2:50am 5ft 11s 7s 16 18 mph 1024.9mb 52f 53f
2:20am  -   -   -  16 18 mph 1025mb 52f 53f
1:50am 5.5ft 11s 7s 16 18 mph 1024.9mb 52f 53f
1:20am  -   -   -  18 22 mph 1024.6mb 52f 53f
12:50am 5ft 11s 7s 18 22 mph 1024.7mb 52f 53f
12:20am  -   -   -  20 25 mph 1024.6mb 52f 53f
Wed 03/25 11:50pm 5ft 10s 7s 22 27 mph 1024.6mb 52f 53f
11:20pm  -   -   -  22 27 mph 1024.4mb 52f 53f
10:50pm 5ft 10s 6s 22 27 mph 1024.1mb 52f 53f
10:20pm  -   -   -  22 27 mph 1023.9mb 52f 53f
9:50pm 5.5ft 9s 6s 22 25 mph 1023.6mb 52f 53f
9:20pm  -   -   -  22 29 mph 1023.6mb 52f 53f
8:50pm 6ft 9s 7s 22 27 mph 1023.1mb 52f 53f
8:20pm  -   -   -  22 25 mph 1022.9mb 52f 53f
7:50pm 6.5ft 9s 7s 22 27 mph 1022.6mb 52f 53f
7:20pm  -   -   -  20 25 mph 1022.3mb 52f 53f
6:50pm 7ft 10s 7s 20 22 mph 1022.4mb 52f 53f
6:20pm  -   -   -  20 22 mph 1022.5mb 52f 53f
5:50pm 7ft 10s 7s 18 20 mph 1022.5mb 52f 53f
5:20pm  -   -   -  13 18 mph 1022.4mb 52f 53f
4:50pm 7.5ft 10s 7s 13 16 mph 1022.1mb 52f 53f
4:20pm  -   -   -  18 20 mph 1021.8mb 52f 53f
3:50pm 7ft 9s 7s 16 18 mph 1021.4mb 52f 52f
3:20pm  -   -   -  16 18 mph 1021mb 52f 53f
2:50pm 6.5ft 8s 7s 16 20 mph 1020.9mb 52f 53f
2:20pm  -   -   -  16 18 mph 1020.6mb 52f 52f
1:50pm 6ft 10s 7s 16 20 mph 1020.5mb 52f 53f
1:20pm  -   -   -  16 20 mph 1020.4mb 52f 53f
12:50pm 6.5ft 10s 7s 16 20 mph 1020.1mb 52f 53f
12:20pm  -   -   -  16 18 mph 1019.9mb 52f 53f
11:50am 6.5ft 9s 6s 13 18 mph 1019.8mb 52f 53f
11:20am  -   -   -  13 20 mph 1019.6mb 52f 51f
10:50am 6.5ft 10s 6s 11 18 mph 1019.2mb 52f 50f
10:20am  -   -   -  13 18 mph 1019.1mb 52f 50f
9:50am 7ft 10s 6s 16 25 mph 1018.6mb 52f 49f
9:20am  -   -   -  18 27 mph 1018.3mb 52f 49f
8:50am 7.5ft 9s 6s 20 31 mph 1018.2mb 52f 49f
8:20am  -   -   -  25 31 mph 1017.7mb 52f 48f
7:50am 7ft 8s 6s 22 29 mph 1017.7mb 52f 48f
7:20am  -   -   -  25 29 mph 1017.6mb 52f 48f
6:50am 7ft 10s 6s 25 29 mph 1017.5mb 52f 48f
6:20am  -   -   -  25 31 mph 1017.4mb 52f 48f
5:50am 6.5ft 9s 6s 27 31 mph 1017.4mb 51f 48f
5:20am  -   -   -  27 31 mph 1017.8mb 51f 48f
4:50am 6ft 9s 6s 27 34 mph 1017.8mb 51f 47f
4:20am  -   -   -  25 31 mph 1018.2mb 51f 48f
3:50am 5.5ft 11s 6s 22 25 mph 1019.1mb 51f 47f
3:20am  -   -   -  22 27 mph 1019.4mb 51f 47f
2:50am 5ft 11s 6s 25 29 mph 1019.6mb 51f 47f
2:20am  -   -   -  20 25 mph 1020mb 51f 47f
1:50am 6ft 11s 7s 20 27 mph 1020.2mb 52f 47f
1:20am  -   -   -  22 27 mph 1020.1mb 52f 47f
12:50am 6ft 11s 7s 20 25 mph 1020.8mb 52f 47f
12:20am  -   -   -  20 22 mph 1020.7mb 52f 48f
Tue 03/24 11:50pm 5.5ft 10s 7s 18 25 mph 1021.2mb 52f 49f
11:20pm  -   -   -  16 20 mph 1021.8mb 52f 49f
10:50pm 5.5ft 11s 7s 16 20 mph 1022.2mb 52f 49f
10:20pm  -   -   -  18 20 mph 1022.4mb 52f 49f
9:50pm 6ft 11s 8s 16 18 mph 1022.1mb 52f 50f
9:20pm  -   -   -  13 18 mph 1022.2mb 52f 50f
8:50pm 5.5ft 12s 8s 11 16 mph 1022.2mb 52f 49f
8:20pm  -   -   -  13 18 mph 1022.2mb 52f 49f
7:50pm 6.5ft 11s 8s 13 18 mph 1022.2mb 51f 49f
7:20pm  -   -   -  11 16 mph 1022.3mb 51f 49f
6:50pm 6.5ft 11s 7s 9 11 mph 1022.7mb 51f 49f
6:20pm  -   -   -  11 13 mph 1022.7mb 51f 51f
5:50pm 7.5ft 12s 8s 7 9 mph 1022.7mb 51f 50f
5:20pm  -   -   -  4 7 mph 1022.6mb 52f 48f
4:50pm 7ft 11s 8s 4 7 mph 1022.5mb 52f 49f
4:20pm  -   -   -  2 4 mph 1022.5mb 52f 49f
3:50pm 7.5ft 12s 8s 4 7 mph 1022.3mb 51f 48f
3:20pm  -   -   -  4 7 mph 1022.1mb 51f 48f
2:50pm 8ft 12s 9s 7 11 mph 1022.4mb 51f 47f
2:20pm  -   -   -  13 18 mph 1022.1mb 51f 48f
1:50pm 7.5ft 13s 9s 16 18 mph 1021.9mb 52f 47f
1:20pm  -   -   -  16 20 mph 1021.4mb 52f 48f
12:50pm 7ft 13s 9s 7 9 mph 1021.3mb 52f 49f
12:20pm  -   -   -  7 11 mph 1021mb 51f 48f
11:50am 7ft 12s 10s 9 11 mph 1020.9mb 51f 48f
11:20am  -   -   -  7 11 mph 1020.7mb 51f 47f
10:50am 6.5ft 12s 10s 13 16 mph 1020.2mb 51f 47f
10:20am  -   -   -  9 11 mph 1019.8mb 51f 47f
9:50am 6.5ft 12s 9s 7 9 mph 1019.3mb 51f 47f
9:20am  -   -   -  7 9 mph 1018.9mb 51f 47f
8:50am 7.5ft 11s 9s 11 16 mph 1018.4mb 51f 47f
8:20am  -   -   -  2 4 mph 1018.1mb 51f 47f
7:50am 8ft 12s 10s 7 11 mph 1017.6mb 51f 47f
7:20am  -   -   -  4 7 mph 1017.2mb 51f 47f
6:50am 7.5ft 12s 9s 2 9 mph 1016.9mb 50f 47f
6:20am  -   -   -  4 9 mph 1016.5mb 51f 47f
5:50am 7ft 13s 8s 2 4 mph 1016.2mb 51f 47f
5:20am  -   -   -   -  4 mph 1015.9mb 51f 47f
4:50am 8ft 12s 8s 7 9 mph 1015.6mb 51f 46f
4:20am  -   -   -  4 7 mph 1015.1mb 51f 47f
3:50am 7ft 12s 9s 7 9 mph 1015mb 51f 46f
3:20am  -   -   -  7 9 mph 1014.7mb 51f 47f
2:50am 6ft 13s 9s 7 11 mph 1014.4mb 51f 46f
2:20am  -   -   -  7 9 mph 1014.1mb 51f 46f
1:50am 6ft 11s 8s 9 13 mph 1013.8mb 51f 47f
1:20am  -   -   -  9 11 mph 1013.5mb 51f 47f
12:50am 7ft 12s 9s 11 16 mph 1013.3mb 51f 46f
12:20am  -   -   -  11 13 mph 1013mb 51f 47f
Mon 03/23 11:50pm 6ft 13s 9s 11 16 mph 1013.1mb 51f 47f
11:20pm  -   -   -  7 11 mph 1012.9mb 51f 47f
10:50pm 7ft 11s 10s 7 9 mph 1012.8mb 51f 47f
10:20pm  -   -   -   -  2 mph 1012.8mb 51f 48f
9:50pm 6.5ft 13s 9s 4 7 mph 1012.7mb 51f 48f
9:20pm  -   -   -  7 9 mph 1012.7mb 51f 46f
8:50pm 6.5ft 12s 9s 13 16 mph 1012.8mb 51f 47f
8:20pm  -   -   -  7 9 mph 1012.8mb 51f 48f
7:50pm 6ft 13s 8s 9 11 mph 1013mb 52f 48f
7:20pm  -   -   -  9 13 mph 1013mb 52f 49f
6:50pm 7ft 13s 8s 11 16 mph 1013mb 51f 48f
6:20pm  -   -   -  13 18 mph 1012.9mb 51f 48f
5:50pm 7.5ft 13s 9s 13 18 mph 1012.7mb 51f 48f
5:20pm  -   -   -  16 20 mph 1012.5mb 51f 47f
4:50pm 7.5ft 13s 9s 16 20 mph 1012.7mb 51f 47f
4:20pm  -   -   -  16 20 mph 1012.7mb 51f 47f
3:50pm 7ft 11s 9s 13 18 mph 1012.8mb 51f 47f
3:20pm  -   -   -  13 18 mph 1013mb 51f 47f
2:50pm 7ft 12s 9s 16 20 mph 1012.8mb 51f 47f
2:20pm  -   -   -  16 18 mph 1012.9mb 51f 47f